Time;durP1;ratioP1;P1;durP2;ratioP2;P2;SDS_P1;SDS_P2;PMS_P1;PMS_P2;Temp;Humidity;BMP_temperature;BMP_pressure;BME280_temperature;BME280_humidity;BME280_pressure;Samples;Min_cycle;Max_cycle;Signal;HPM_P1;HPM_P2
2023/05/17 00:00:54;;;;;;;6.57;2.50;;;;;;;6.29;100.00;94158.50;5085582;28;20046;-59
2023/05/17 00:03:21;;;;;;;6.72;2.50;;;;;;;6.29;100.00;94163.19;5090778;28;20040;-59
2023/05/17 00:05:48;;;;;;;4.47;2.37;;;;;;;6.50;100.00;94165.22;5090633;28;20153;-60
2023/05/17 00:08:15;;;;;;;5.22;2.30;;;;;;;6.54;100.00;94157.81;5077813;28;20853;-59
2023/05/17 00:10:42;;;;;;;7.68;2.50;;;;;;;6.53;100.00;94162.50;5069763;28;20032;-62
2023/05/17 00:13:08;;;;;;;5.10;2.40;;;;;;;6.62;100.00;94162.16;5069963;28;20047;-58
2023/05/17 00:15:35;;;;;;;4.90;2.42;;;;;;;6.44;100.00;94162.09;5070257;28;20036;-59
2023/05/17 00:18:02;;;;;;;7.10;2.70;;;;;;;6.20;100.00;94166.25;5080560;28;20044;-59
2023/05/17 00:20:29;;;;;;;6.75;3.03;;;;;;;6.09;100.00;94162.69;5086415;28;20036;-60
2023/05/17 00:22:56;;;;;;;7.78;2.67;;;;;;;6.26;100.00;94166.66;5080918;28;20062;-59
2023/05/17 00:25:22;;;;;;;5.50;2.95;;;;;;;6.35;100.00;94162.41;5087802;28;21235;-58
2023/05/17 00:27:49;;;;;;;5.15;2.78;;;;;;;6.26;100.00;94169.38;5079557;28;20397;-58
2023/05/17 00:30:16;;;;;;;7.47;2.80;;;;;;;6.23;100.00;94168.22;5089783;28;20052;-61
2023/05/17 00:32:45;;;;;;;5.70;2.60;;;;;;;6.28;100.00;94172.50;5090212;28;20039;-59
2023/05/17 00:35:12;;;;;;;6.90;3.15;;;;;;;6.30;100.00;94175.63;5089380;28;20071;-59
2023/05/17 00:37:39;;;;;;;7.93;2.80;;;;;;;6.02;100.00;94171.59;5095889;28;20051;-60
2023/05/17 00:40:07;;;;;;;7.47;2.88;;;;;;;6.14;100.00;94176.72;5088185;28;20048;-59
2023/05/17 00:42:33;;;;;;;6.20;3.07;;;;;;;6.02;100.00;94166.16;5079100;28;20048;-59
2023/05/17 00:45:00;;;;;;;6.70;2.75;;;;;;;6.12;100.00;94172.84;5065812;28;20481;-58
2023/05/17 00:47:27;;;;;;;7.75;3.28;;;;;;;5.91;100.00;94170.72;5092103;28;20038;-58
2023/05/17 00:49:54;;;;;;;7.90;2.80;;;;;;;5.93;100.00;94171.13;5069184;28;20056;-59
2023/05/17 00:52:21;;;;;;;6.80;3.45;;;;;;;5.95;100.00;94169.59;5069550;28;20377;-60
2023/05/17 00:54:49;;;;;;;7.80;3.50;;;;;;;5.94;100.00;94176.19;5069712;28;20047;-59
2023/05/17 00:57:16;;;;;;;7.60;3.05;;;;;;;5.77;100.00;94163.22;5068308;28;20467;-60
2023/05/17 00:59:43;;;;;;;7.72;3.50;;;;;;;5.83;100.00;94164.44;5076549;28;20044;-58
2023/05/17 01:02:10;;;;;;;7.03;3.30;;;;;;;5.83;100.00;94167.16;5076370;28;20043;-58
2023/05/17 01:04:38;;;;;;;7.05;3.00;;;;;;;5.58;100.00;94167.75;5069113;28;20036;-58
2023/05/17 01:07:04;;;;;;;6.57;3.17;;;;;;;5.55;100.00;94170.44;5068668;28;20044;-60
2023/05/17 01:09:31;;;;;;;5.85;3.30;;;;;;;5.44;100.00;94170.38;5087516;28;20040;-59
2023/05/17 01:12:36;;;;;;;6.50;2.88;;;;;;;5.59;100.00;94176.69;5089027;28;20036;-58
2023/05/17 01:15:12;;;;;;;6.90;3.03;;;;;;;5.63;100.00;94176.75;5088861;28;20347;-60
2023/05/17 01:17:49;;;;;;;6.93;3.38;;;;;;;5.52;100.00;94182.88;5077285;28;20177;-58
2023/05/17 01:20:27;;;;;;;7.70;3.17;;;;;;;5.26;100.00;94186.53;5081462;28;22009;-58
2023/05/17 01:23:22;;;;;;;8.23;3.05;;;;;;;5.17;100.00;94181.41;5087762;28;20040;-59
2023/05/17 01:25:59;;;;;;;7.13;3.30;;;;;;;5.21;100.00;94189.59;5088401;28;20051;-57
2023/05/17 01:28:27;;;;;;;7.53;3.03;;;;;;;5.16;100.00;94179.84;5070625;28;20384;-59
2023/05/17 01:30:56;;;;;;;6.15;3.10;;;;;;;5.09;100.00;94187.94;5076641;28;20040;-59
2023/05/17 01:33:23;;;;;;;9.77;3.73;;;;;;;4.96;100.00;94184.69;5072085;28;20032;-59
2023/05/17 01:35:50;;;;;;;7.80;3.20;;;;;;;5.04;100.00;94195.66;5084861;28;20036;-61
2023/05/17 01:38:16;;;;;;;9.82;3.30;;;;;;;4.75;100.00;94195.34;5082008;28;20534;-59
2023/05/17 01:41:06;;;;;;;5.75;3.10;;;;;;;4.86;100.00;94198.97;5069623;28;20044;-59
2023/05/17 01:43:45;;;;;;;7.40;3.13;;;;;;;4.85;100.00;94193.88;5082973;28;20538;-59
2023/05/17 01:46:28;;;;;;;6.07;3.10;;;;;;;4.88;100.00;94201.31;5090094;28;20043;-59
2023/05/17 01:49:25;;;;;;;7.72;3.15;;;;;;;4.76;100.00;94192.25;5095049;28;20177;-58
2023/05/17 01:51:52;;;;;;;6.68;3.28;;;;;;;4.87;100.00;94191.59;5088174;28;20385;-58
2023/05/17 01:54:21;;;;;;;7.53;3.28;;;;;;;4.80;100.00;94195.78;5088013;28;20046;-58
2023/05/17 01:56:58;;;;;;;7.75;3.15;;;;;;;4.56;100.00;94201.72;5088269;28;20048;-59
2023/05/17 01:59:26;;;;;;;7.90;3.00;;;;;;;4.54;100.00;94193.16;5087526;28;20130;-58
2023/05/17 02:01:56;;;;;;;8.38;3.60;;;;;;;4.44;100.00;94201.97;5061257;28;20135;-58
2023/05/17 02:04:22;;;;;;;6.35;3.58;;;;;;;4.33;100.00;94197.19;5085914;28;20043;-60
2023/05/17 02:06:49;;;;;;;8.70;3.30;;;;;;;4.26;100.00;94209.88;5087913;28;20395;-58
2023/05/17 02:09:16;;;;;;;7.18;3.25;;;;;;;4.19;100.00;94210.59;5088218;28;20050;-59
2023/05/17 02:11:43;;;;;;;6.63;3.17;;;;;;;4.26;100.00;94218.03;5088358;28;20028;-59
2023/05/17 02:14:09;;;;;;;5.90;3.10;;;;;;;4.23;100.00;94205.97;5087799;28;20064;-59
2023/05/17 02:16:36;;;;;;;9.43;3.85;;;;;;;4.15;100.00;94212.47;5088082;28;20036;-58
2023/05/17 02:19:03;;;;;;;7.05;3.30;;;;;;;4.00;100.00;94211.47;5069177;28;20446;-60
2023/05/17 02:21:30;;;;;;;8.60;3.75;;;;;;;3.98;100.00;94206.41;5071922;28;20045;-59
2023/05/17 02:23:56;;;;;;;8.30;3.27;;;;;;;3.98;100.00;94211.84;5074617;28;20051;-59
2023/05/17 02:26:23;;;;;;;7.32;3.42;;;;;;;4.01;100.00;94204.91;5070148;28;20045;-61
2023/05/17 02:28:50;;;;;;;6.47;3.40;;;;;;;3.97;100.00;94212.22;5087989;28;20652;-60
2023/05/17 02:31:16;;;;;;;8.48;3.72;;;;;;;3.88;100.00;94211.69;5088311;28;20059;-59
2023/05/17 02:33:43;;;;;;;7.68;3.90;;;;;;;3.79;100.00;94214.66;5090689;28;20048;-59
2023/05/17 02:36:10;;;;;;;7.00;3.50;;;;;;;3.78;100.00;94213.88;5090192;28;20344;-61
2023/05/17 02:38:36;;;;;;;8.30;3.83;;;;;;;3.87;100.00;94221.75;5083520;28;20470;-60
2023/05/17 02:41:03;;;;;;;9.50;4.10;;;;;;;3.73;100.00;94208.75;5073347;28;20477;-59
2023/05/17 02:43:30;;;;;;;8.95;3.65;;;;;;;3.66;100.00;94213.28;5090965;28;20128;-61
2023/05/17 02:45:57;;;;;;;5.90;3.42;;;;;;;3.82;100.00;94215.84;5090632;28;20050;-59
2023/05/17 02:48:24;;;;;;;7.07;3.80;;;;;;;3.73;100.00;94208.75;5079315;28;20469;-59
2023/05/17 02:50:50;;;;;;;9.52;3.50;;;;;;;3.74;100.00;94209.53;5084195;28;20040;-61
2023/05/17 02:53:17;;;;;;;7.25;3.35;;;;;;;3.64;100.00;94215.56;5074938;28;20507;-59
2023/05/17 02:55:44;;;;;;;6.70;3.60;;;;;;;3.74;100.00;94210.34;5089737;28;20052;-59
2023/05/17 02:58:10;;;;;;;8.00;3.70;;;;;;;3.75;100.00;94211.09;5090960;28;20069;-59
2023/05/17 03:00:37;;;;;;;6.80;3.70;;;;;;;3.77;100.00;94209.59;5076182;28;20042;-59
2023/05/17 03:03:04;;;;;;;9.48;3.63;;;;;;;3.74;100.00;94217.66;5070168;28;20072;-59
2023/05/17 03:05:32;;;;;;;9.02;3.38;;;;;;;3.85;100.00;94215.13;5070515;28;20029;-60
2023/05/17 03:07:59;;;;;;;7.18;3.55;;;;;;;3.88;100.00;94219.81;5071865;28;20040;-59
2023/05/17 03:10:25;;;;;;;6.00;3.47;;;;;;;3.88;100.00;94215.16;5090953;28;20036;-59
2023/05/17 03:12:52;;;;;;;9.57;3.23;;;;;;;3.84;100.00;94219.75;5103521;28;20066;-59
2023/05/17 03:15:19;;;;;;;9.30;3.72;;;;;;;3.57;100.00;94222.47;5091083;28;20082;-59
2023/05/17 03:17:46;;;;;;;7.72;3.60;;;;;;;3.71;100.00;94221.91;5091156;28;20120;-59
2023/05/17 03:20:13;;;;;;;8.18;3.30;;;;;;;3.77;100.00;94222.38;5090414;28;20468;-61
2023/05/17 03:22:40;;;;;;;7.07;3.40;;;;;;;3.71;100.00;94219.19;5090998;28;20770;-59
2023/05/17 03:25:07;;;;;;;7.80;3.53;;;;;;;3.70;100.00;94222.25;5090449;28;20062;-61
2023/05/17 03:27:34;;;;;;;8.48;3.30;;;;;;;3.65;100.00;94230.72;5090586;28;20053;-59
2023/05/17 03:30:00;;;;;;;8.13;3.15;;;;;;;3.80;100.00;94227.88;5090210;28;20040;-59
2023/05/17 03:32:27;;;;;;;6.97;3.28;;;;;;;3.68;100.00;94225.34;5090328;28;20044;-60
2023/05/17 03:34:54;;;;;;;7.47;3.10;;;;;;;3.74;100.00;94226.63;5094460;28;20036;-61
2023/05/17 03:37:21;;;;;;;5.53;2.90;;;;;;;3.86;100.00;94225.59;5098482;28;20042;-60
2023/05/17 03:39:48;;;;;;;6.53;3.13;;;;;;;3.82;100.00;94227.50;5105911;28;20067;-61
2023/05/17 03:42:15;;;;;;;5.75;3.08;;;;;;;3.79;100.00;94229.00;5077319;28;20678;-59
2023/05/17 03:44:42;;;;;;;5.72;2.90;;;;;;;3.84;100.00;94230.63;5072795;28;20054;-59
2023/05/17 03:47:08;;;;;;;6.13;3.20;;;;;;;3.83;100.00;94236.44;5100091;28;20066;-61
2023/05/17 03:49:35;;;;;;;7.77;3.33;;;;;;;3.90;100.00;94234.59;5072656;28;20036;-60
2023/05/17 03:52:02;;;;;;;10.02;3.10;;;;;;;3.93;100.00;94235.81;5068700;28;20039;-59
2023/05/17 03:54:29;;;;;;;5.97;2.83;;;;;;;4.02;100.00;94235.53;5070079;28;20040;-59
2023/05/17 03:56:55;;;;;;;8.63;2.85;;;;;;;4.02;100.00;94241.75;5069863;28;20041;-59
2023/05/17 03:59:22;;;;;;;9.05;3.83;;;;;;;4.08;100.00;94240.28;5069589;28;20067;-63
2023/05/17 04:01:49;;;;;;;6.73;2.87;;;;;;;4.09;100.00;94236.44;5077839;28;20063;-59
2023/05/17 04:04:16;;;;;;;6.68;3.20;;;;;;;4.13;100.00;94240.00;5069948;28;20053;-60
2023/05/17 04:06:43;;;;;;;6.15;3.10;;;;;;;4.07;100.00;94246.09;5064667;28;20053;-61
2023/05/17 04:09:11;;;;;;;7.38;3.13;;;;;;;4.16;100.00;94247.38;5075367;28;20083;-59
2023/05/17 04:11:39;;;;;;;7.38;3.05;;;;;;;4.11;100.00;94249.66;5082676;28;20052;-59
2023/05/17 04:14:06;;;;;;;7.40;2.90;;;;;;;4.13;100.00;94253.56;5072551;28;20047;-60
2023/05/17 04:16:33;;;;;;;5.75;2.80;;;;;;;4.24;100.00;94251.00;5062458;28;20032;-60
2023/05/17 04:19:00;;;;;;;10.00;3.00;;;;;;;4.25;100.00;94257.22;5085153;28;20055;-59
2023/05/17 04:21:27;;;;;;;7.20;2.47;;;;;;;4.26;100.00;94258.78;5078138;28;20067;-60
2023/05/17 04:23:54;;;;;;;6.22;2.85;;;;;;;4.45;100.00;94257.88;5086010;28;20048;-61
2023/05/17 04:26:21;;;;;;;8.27;3.30;;;;;;;4.62;100.00;94259.28;5089802;28;20451;-59
2023/05/17 04:28:48;;;;;;;8.80;2.92;;;;;;;4.64;100.00;94257.75;5089154;28;20046;-59
2023/05/17 04:31:15;;;;;;;6.93;3.13;;;;;;;4.54;100.00;94261.09;5090832;28;20644;-60
2023/05/17 04:33:42;;;;;;;8.20;3.25;;;;;;;4.61;100.00;94263.94;5091342;28;20043;-59
2023/05/17 04:36:09;;;;;;;6.75;3.00;;;;;;;4.74;100.00;94257.09;5097948;28;20940;-61
2023/05/17 04:38:35;;;;;;;6.73;3.20;;;;;;;4.88;100.00;94261.91;5089129;28;20035;-61
2023/05/17 04:41:04;;;;;;;11.50;5.22;;;;;;;4.76;100.00;94264.88;5099946;28;20043;-59
2023/05/17 04:43:31;;;;;;;15.85;9.00;;;;;;;4.90;100.00;94272.44;5108744;28;20039;-59
2023/05/17 04:45:58;;;;;;;20.85;12.20;;;;;;;4.98;100.00;94269.41;5082751;28;20036;-59
2023/05/17 04:48:26;;;;;;;17.33;9.13;;;;;;;5.02;100.00;94271.41;5100231;28;20046;-63
2023/05/17 04:50:53;;;;;;;16.90;6.80;;;;;;;5.18;100.00;94275.47;5108111;28;20035;-60
2023/05/17 04:53:20;;;;;;;13.52;7.90;;;;;;;5.23;100.00;94279.00;5097845;28;20044;-60
2023/05/17 04:55:47;;;;;;;11.23;5.50;;;;;;;5.08;100.00;94284.31;5088710;28;20040;-60
2023/05/17 04:58:14;;;;;;;11.30;5.30;;;;;;;5.18;100.00;94283.63;5088153;28;20036;-59
2023/05/17 05:00:40;;;;;;;11.32;5.05;;;;;;;5.38;100.00;94286.97;5089232;28;20058;-59
2023/05/17 05:03:07;;;;;;;8.37;4.30;;;;;;;5.38;100.00;94292.41;5073931;28;20063;-59
2023/05/17 05:05:34;;;;;;;7.13;3.30;;;;;;;5.37;100.00;94281.88;5073619;28;20104;-59
2023/05/17 05:08:01;;;;;;;7.22;3.15;;;;;;;5.43;100.00;94280.38;5078226;28;20673;-60
2023/05/17 05:10:28;;;;;;;9.02;3.15;;;;;;;5.30;100.00;94282.59;5072289;28;20409;-62
2023/05/17 05:12:55;;;;;;;5.80;3.08;;;;;;;5.37;100.00;94281.88;5079146;28;20117;-61
2023/05/17 05:15:21;;;;;;;5.00;2.30;;;;;;;5.37;100.00;94281.88;5082302;28;20362;-59
2023/05/17 05:17:48;;;;;;;7.25;2.85;;;;;;;5.63;100.00;94286.41;5088565;28;20054;-60
2023/05/17 05:20:15;;;;;;;5.88;2.55;;;;;;;5.84;100.00;94288.56;5088082;28;20109;-61
2023/05/17 05:22:42;;;;;;;8.73;3.83;;;;;;;5.80;100.00;94285.81;5088038;28;20032;-59
2023/05/17 05:25:09;;;;;;;8.43;3.20;;;;;;;5.84;100.00;94294.00;5069860;28;20448;-61
2023/05/17 05:27:35;;;;;;;6.77;3.50;;;;;;;5.91;100.00;94298.72;5088360;28;20050;-59
2023/05/17 05:30:03;;;;;;;7.82;2.88;;;;;;;6.17;100.00;94298.59;5087674;28;20070;-59
2023/05/17 05:32:30;;;;;;;8.30;3.05;;;;;;;6.18;100.00;94299.38;5088263;28;20490;-59
2023/05/17 05:34:56;;;;;;;5.50;3.13;;;;;;;5.98;100.00;94301.56;5087875;28;20089;-61
2023/05/17 05:37:23;;;;;;;6.13;2.70;;;;;;;6.36;100.00;94302.25;5082158;28;20656;-60
2023/05/17 05:39:50;;;;;;;6.07;2.70;;;;;;;6.37;100.00;94304.56;5071941;28;20117;-59
2023/05/17 05:42:17;;;;;;;6.28;2.83;;;;;;;7.26;100.00;94303.47;5072450;28;20384;-59
2023/05/17 05:44:43;;;;;;;9.75;2.70;;;;;;;7.38;100.00;94300.41;5087528;28;20036;-59
2023/05/17 05:47:10;;;;;;;8.15;2.60;;;;;;;8.08;100.00;94307.56;5068737;28;20040;-60
2023/05/17 05:49:37;;;;;;;7.47;3.63;;;;;;;7.55;100.00;94309.03;5067996;28;20654;-60
2023/05/17 05:52:04;;;;;;;6.20;3.00;;;;;;;8.54;100.00;94306.78;5075786;28;20043;-60
2023/05/17 05:54:31;;;;;;;6.80;2.92;;;;;;;8.82;100.00;94303.22;5073423;28;20043;-61
2023/05/17 05:56:59;;;;;;;7.45;2.95;;;;;;;9.23;100.00;94307.41;5083273;28;20032;-61
2023/05/17 05:59:26;;;;;;;6.50;2.50;;;;;;;7.78;100.00;94303.22;5068033;28;20366;-60
2023/05/17 06:01:53;;;;;;;6.72;2.60;;;;;;;12.62;73.59;94300.84;5079589;28;20044;-60
2023/05/17 06:04:19;;;;;;;3.87;2.03;;;;;;;10.68;69.40;94306.09;5070154;28;20050;-62
2023/05/17 06:06:55;;;;;;;6.18;2.25;;;;;;;10.88;78.42;94312.53;5069312;28;20044;-60
2023/05/17 06:09:22;;;;;;;4.90;2.00;;;;;;;14.19;66.42;94297.72;5076064;28;20096;-62
2023/05/17 06:11:51;;;;;;;5.20;2.10;;;;;;;16.12;54.37;94304.16;5087366;28;20046;-61
2023/05/17 06:14:18;;;;;;;5.63;2.20;;;;;;;17.82;48.12;94309.16;5089292;28;20326;-60
2023/05/17 06:16:47;;;;;;;5.07;2.10;;;;;;;17.52;46.41;94305.88;5094282;28;20079;-60
2023/05/17 06:19:14;;;;;;;6.00;2.03;;;;;;;19.27;41.25;94314.22;5087304;28;20047;-60
2023/05/17 06:21:41;;;;;;;5.85;2.15;;;;;;;19.13;39.75;94315.59;5068673;28;20400;-60
2023/05/17 06:24:08;;;;;;;5.38;1.95;;;;;;;17.43;42.00;94314.16;5087332;28;20036;-62
2023/05/17 06:26:34;;;;;;;7.65;1.95;;;;;;;18.58;40.04;94312.66;5059330;28;20109;-61
2023/05/17 06:29:01;;;;;;;6.40;2.20;;;;;;;19.44;38.35;94309.13;5086824;28;20032;-61
2023/05/17 06:31:28;;;;;;;5.50;2.17;;;;;;;19.16;38.99;94308.34;5082959;28;20046;-61
2023/05/17 06:33:54;;;;;;;5.57;2.10;;;;;;;20.42;36.69;94311.13;5072190;28;20051;-59
2023/05/17 06:36:23;;;;;;;5.30;2.00;;;;;;;18.08;40.33;94314.59;5078959;28;20040;-59
2023/05/17 06:38:51;;;;;;;5.53;2.35;;;;;;;18.40;37.29;94312.59;5079579;28;20139;-59
2023/05/17 06:41:17;;;;;;;7.13;2.30;;;;;;;17.45;40.22;94308.91;5083668;28;20066;-60
2023/05/17 06:43:45;;;;;;;5.68;2.80;;;;;;;18.72;38.39;94316.88;5066211;28;20699;-59
2023/05/17 06:46:13;;;;;;;5.80;2.53;;;;;;;18.70;38.20;94311.75;5068294;28;20475;-59
2023/05/17 06:48:40;;;;;;;6.70;2.03;;;;;;;18.67;38.04;94318.25;5067953;28;20045;-60
2023/05/17 06:51:07;;;;;;;5.28;2.13;;;;;;;17.41;39.58;94313.81;5067211;28;20053;-59
2023/05/17 06:53:36;;;;;;;5.80;2.40;;;;;;;18.87;38.87;94311.53;5067639;28;20117;-59
2023/05/17 06:56:03;;;;;;;6.30;2.15;;;;;;;17.43;40.06;94324.47;5067404;28;20032;-60
2023/05/17 06:58:31;;;;;;;7.72;2.42;;;;;;;19.42;36.86;94310.81;5067772;28;20036;-60
2023/05/17 07:00:58;;;;;;;4.82;1.90;;;;;;;15.31;42.92;94317.88;5078350;28;20388;-60
2023/05/17 07:03:25;;;;;;;6.90;2.22;;;;;;;14.81;44.91;94327.47;5087561;28;20044;-59
2023/05/17 07:05:52;;;;;;;6.00;2.60;;;;;;;13.93;46.69;94326.31;5072103;28;20438;-59
2023/05/17 07:08:18;;;;;;;6.88;2.55;;;;;;;12.75;49.52;94330.09;5070350;28;20039;-61
2023/05/17 07:10:45;;;;;;;5.85;2.20;;;;;;;13.42;50.32;94332.09;5086159;28;20042;-59
2023/05/17 07:13:12;;;;;;;6.93;2.30;;;;;;;13.69;48.34;94323.66;5087138;28;20425;-59
2023/05/17 07:15:39;;;;;;;6.85;2.30;;;;;;;13.48;50.98;94335.91;5073978;28;20050;-59
2023/05/17 07:18:05;;;;;;;5.50;2.30;;;;;;;14.53;48.74;94331.69;5087027;28;20032;-60
2023/05/17 07:20:32;;;;;;;8.35;2.33;;;;;;;13.96;49.36;94334.53;5078625;28;20365;-59
2023/05/17 07:22:59;;;;;;;6.45;2.20;;;;;;;14.45;48.08;94333.84;5088025;28;20112;-61
2023/05/17 07:25:26;;;;;;;7.68;2.42;;;;;;;13.79;48.50;94332.91;5091055;28;20036;-59
2023/05/17 07:27:53;;;;;;;5.82;2.13;;;;;;;12.99;51.05;94333.63;5090279;28;20040;-59
2023/05/17 07:30:22;;;;;;;6.03;2.00;;;;;;;13.17;51.59;94332.53;5091098;28;20108;-59
2023/05/17 07:32:49;;;;;;;5.60;2.30;;;;;;;14.15;49.75;94341.19;5072430;28;20037;-60
2023/05/17 07:35:16;;;;;;;5.15;2.10;;;;;;;14.04;49.96;94337.13;5062271;28;21944;-59
2023/05/17 07:37:46;;;;;;;5.80;2.20;;;;;;;14.15;49.96;94343.19;5081964;28;20149;-60
2023/05/17 07:40:13;;;;;;;4.93;2.10;;;;;;;12.96;51.83;94344.72;5073214;28;20063;-59
2023/05/17 07:42:40;;;;;;;6.63;2.33;;;;;;;12.25;53.44;94330.91;5051760;28;20468;-60
2023/05/17 07:45:08;;;;;;;5.72;2.33;;;;;;;13.99;52.23;94343.94;5078471;28;20042;-60
2023/05/17 07:47:34;;;;;;;6.18;2.28;;;;;;;13.07;52.16;94339.00;5084127;28;20070;-60
2023/05/17 07:50:03;;;;;;;7.55;2.40;;;;;;;11.82;55.11;94345.22;5090063;28;20409;-58
2023/05/17 07:52:29;;;;;;;4.68;2.20;;;;;;;13.42;54.78;94328.53;5090680;28;20040;-59
2023/05/17 07:54:58;;;;;;;7.57;2.30;;;;;;;12.85;54.27;94346.88;5071956;28;20412;-58
2023/05/17 07:57:26;;;;;;;5.10;2.28;;;;;;;12.98;55.38;94339.56;5090677;28;20048;-59
2023/05/17 07:59:53;;;;;;;6.13;2.47;;;;;;;12.78;54.32;94343.03;5076254;28;20063;-61
2023/05/17 08:02:19;;;;;;;5.38;2.30;;;;;;;13.10;54.65;94338.94;5090152;28;20046;-59
2023/05/17 08:04:46;;;;;;;5.25;2.30;;;;;;;12.22;55.69;94348.25;5090462;28;20052;-59
2023/05/17 08:07:13;;;;;;;7.20;2.40;;;;;;;11.52;56.08;94348.75;5089691;28;20048;-59
2023/05/17 08:09:43;;;;;;;6.75;2.50;;;;;;;12.07;55.31;94346.88;5090021;28;20046;-59
2023/05/17 08:12:11;;;;;;;5.80;2.58;;;;;;;12.50;53.57;94346.28;5089662;28;20048;-58
2023/05/17 08:14:38;;;;;;;6.38;2.55;;;;;;;12.74;53.03;94347.06;5090330;28;20073;-62
2023/05/17 08:17:05;;;;;;;5.95;2.50;;;;;;;13.05;53.17;94342.19;5072651;28;20374;-59
2023/05/17 08:19:32;;;;;;;5.73;2.40;;;;;;;13.81;51.37;94349.81;5075871;28;20035;-60
2023/05/17 08:21:58;;;;;;;6.75;2.60;;;;;;;13.18;49.62;94348.66;5080893;28;20055;-59
2023/05/17 08:24:25;;;;;;;4.97;2.45;;;;;;;13.39;51.30;94344.72;5067219;28;20036;-62
2023/05/17 08:26:52;;;;;;;6.53;2.80;;;;;;;14.70;50.41;94344.28;5082583;28;20039;-59
2023/05/17 08:29:19;;;;;;;6.68;3.03;;;;;;;13.52;51.35;94349.59;5060414;28;20032;-59
2023/05/17 08:31:45;;;;;;;6.10;2.67;;;;;;;14.06;52.72;94348.50;5098124;28;20043;-59
2023/05/17 08:34:12;;;;;;;5.47;2.72;;;;;;;14.04;51.22;94351.69;5091662;28;20071;-61
2023/05/17 08:36:39;;;;;;;8.52;2.72;;;;;;;12.52;53.40;94357.63;5070417;28;20039;-62
2023/05/17 08:39:07;;;;;;;7.90;3.17;;;;;;;13.38;52.75;94350.66;5059522;28;20062;-60
2023/05/17 08:41:34;;;;;;;6.18;2.70;;;;;;;12.87;53.26;94352.75;5082106;28;20139;-59
2023/05/17 08:44:05;;;;;;;8.83;2.70;;;;;;;12.18;53.08;94355.78;5088959;28;20055;-58
2023/05/17 08:46:33;;;;;;;5.70;2.83;;;;;;;14.23;50.23;94355.63;5089325;28;20435;-59
2023/05/17 08:49:03;;;;;;;5.25;2.58;;;;;;;16.55;44.96;94352.69;5073463;28;20050;-59
2023/05/17 08:51:31;;;;;;;10.38;2.88;;;;;;;14.53;49.02;94356.53;5089372;28;20047;-61
2023/05/17 08:53:58;;;;;;;7.47;2.88;;;;;;;15.83;45.87;94349.25;5088323;28;20040;-60
2023/05/17 08:56:29;;;;;;;5.30;2.30;;;;;;;15.24;47.58;94356.78;5088906;28;20046;-61
2023/05/17 08:58:57;;;;;;;7.63;2.55;;;;;;;13.89;49.43;94362.25;5086931;28;20039;-59
2023/05/17 09:01:24;;;;;;;6.10;2.30;;;;;;;14.42;49.42;94351.25;5086358;28;20085;-62
2023/05/17 09:03:54;;;;;;;4.78;2.50;;;;;;;15.73;45.91;94358.66;5089053;28;20062;-60
2023/05/17 09:06:21;;;;;;;5.50;2.53;;;;;;;16.17;43.02;94356.19;5089725;28;20438;-60
2023/05/17 09:08:55;;;;;;;6.70;3.10;;;;;;;16.46;43.28;94366.41;5089798;28;20408;-59
2023/05/17 09:11:27;;;;;;;6.38;3.03;;;;;;;14.10;48.87;94368.53;5074904;28;20043;-59
2023/05/17 09:14:05;;;;;;;8.02;3.42;;;;;;;16.24;44.95;94358.75;5078489;28;20195;-60
2023/05/17 09:16:36;;;;;;;6.53;3.28;;;;;;;16.05;44.62;94360.50;5080648;28;20051;-62
2023/05/17 09:19:05;;;;;;;10.18;4.40;;;;;;;15.40;46.97;94361.50;5088943;28;20063;-59
2023/05/17 09:21:32;;;;;;;7.40;4.07;;;;;;;14.91;48.51;94362.34;5089291;28;20036;-59
2023/05/17 09:24:00;;;;;;;6.03;2.45;;;;;;;13.31;50.57;94365.34;5079099;28;20044;-59
2023/05/17 09:26:41;;;;;;;6.85;2.78;;;;;;;13.03;53.33;94358.34;5089361;28;20050;-61
2023/05/17 09:29:15;;;;;;;10.10;4.35;;;;;;;13.23;50.89;94357.63;5088593;28;20044;-61
2023/05/17 09:31:43;;;;;;;8.52;4.78;;;;;;;14.67;49.97;94350.69;5089501;28;20043;-59
2023/05/17 09:34:10;;;;;;;11.60;6.27;;;;;;;16.04;46.34;94358.19;5087890;28;20480;-62
2023/05/17 09:36:41;;;;;;;8.60;4.97;;;;;;;16.36;42.82;94355.22;5080577;28;20029;-61
2023/05/17 09:39:11;;;;;;;5.75;3.00;;;;;;;13.28;46.58;94349.66;5084892;28;20438;-59
2023/05/17 09:41:42;;;;;;;8.15;3.67;;;;;;;15.52;44.18;94349.69;5096274;28;20056;-59
2023/05/17 09:44:10;;;;;;;6.95;3.53;;;;;;;15.31;45.32;94355.81;5087950;28;20040;-60
2023/05/17 09:46:41;;;;;;;5.70;2.90;;;;;;;14.83;47.30;94351.88;5094292;28;20351;-59
2023/05/17 09:49:08;;;;;;;6.82;3.70;;;;;;;14.94;48.61;94361.47;5093410;28;20069;-62
2023/05/17 09:51:54;;;;;;;9.02;3.40;;;;;;;17.23;44.17;94363.59;5088918;28;20062;-59
2023/05/17 09:54:20;;;;;;;6.68;2.90;;;;;;;17.63;40.69;94354.69;5069790;28;20044;-60
2023/05/17 09:57:06;;;;;;;4.80;2.50;;;;;;;18.41;39.57;94364.94;5089066;28;20039;-60
2023/05/17 09:59:33;;;;;;;7.43;2.50;;;;;;;19.76;37.51;94362.69;5087971;28;20333;-60
2023/05/17 10:02:01;;;;;;;6.28;2.53;;;;;;;20.23;36.00;94360.59;5088414;28;20040;-60
2023/05/17 10:04:30;;;;;;;6.03;2.60;;;;;;;17.53;38.96;94353.84;5093085;28;20039;-60
2023/05/17 10:06:59;;;;;;;5.35;2.70;;;;;;;15.25;41.37;94363.88;5089799;28;20059;-60
2023/05/17 10:09:33;;;;;;;6.13;2.90;;;;;;;14.38;43.37;94369.88;5088328;28;20412;-62
2023/05/17 10:12:02;;;;;;;6.90;2.90;;;;;;;13.58;45.04;94375.47;5074111;28;20388;-59
2023/05/17 10:14:32;;;;;;;8.07;3.13;;;;;;;13.46;45.99;94379.66;5088729;28;20036;-59
2023/05/17 10:17:01;;;;;;;5.80;2.63;;;;;;;14.50;45.65;94374.72;5087948;28;20058;-60
2023/05/17 10:19:29;;;;;;;6.00;2.55;;;;;;;14.49;45.23;94375.19;5088304;28;20044;-61
2023/05/17 10:21:57;;;;;;;5.28;2.90;;;;;;;15.27;43.91;94372.50;5087415;28;20086;-59
2023/05/17 10:24:45;;;;;;;5.43;2.60;;;;;;;15.18;43.45;94380.63;5088612;28;20338;-58
2023/05/17 10:27:12;;;;;;;5.18;2.90;;;;;;;14.33;44.32;94364.88;5087893;28;20059;-59
2023/05/17 10:29:40;;;;;;;6.05;2.97;;;;;;;14.92;43.58;94371.41;5088546;28;20396;-59
2023/05/17 10:32:08;;;;;;;7.30;4.15;;;;;;;12.97;46.57;94369.06;5087897;28;20385;-59
2023/05/17 10:34:38;;;;;;;5.68;3.20;;;;;;;14.46;45.29;94371.28;5060285;28;20040;-59
2023/05/17 10:37:05;;;;;;;6.07;2.40;;;;;;;15.14;44.46;94374.41;5063330;28;20487;-59
2023/05/17 10:39:33;;;;;;;7.10;2.90;;;;;;;13.83;44.69;94372.25;5063658;28;20043;-58
2023/05/17 10:42:03;;;;;;;6.93;3.10;;;;;;;14.01;45.53;94373.88;5081300;28;20047;-59
2023/05/17 10:44:41;;;;;;;6.85;2.78;;;;;;;14.07;43.71;94372.91;5088648;28;20042;-59
2023/05/17 10:47:10;;;;;;;7.55;2.55;;;;;;;12.70;45.41;94380.16;5082159;28;20044;-59
2023/05/17 10:49:43;;;;;;;5.63;2.20;;;;;;;12.59;45.98;94379.53;5067879;28;20059;-58
2023/05/17 10:52:15;;;;;;;6.65;2.90;;;;;;;12.90;45.27;94371.97;5074944;28;20064;-58
2023/05/17 10:54:46;;;;;;;5.10;2.67;;;;;;;13.12;44.38;94364.09;5078009;28;20046;-58
2023/05/17 10:57:36;;;;;;;5.05;2.78;;;;;;;13.10;44.18;94366.50;5089754;28;20040;-60
2023/05/17 11:00:07;;;;;;;4.63;2.83;;;;;;;13.21;43.08;94357.25;5091518;28;20383;-59
2023/05/17 11:02:39;;;;;;;6.37;3.60;;;;;;;12.48;44.83;94363.19;5092065;28;20088;-59
2023/05/17 11:05:06;;;;;;;5.38;2.63;;;;;;;13.98;43.08;94362.47;5091565;28;20093;-59
2023/05/17 11:07:36;;;;;;;8.52;3.83;;;;;;;14.02;45.16;94354.09;5074201;28;20167;-58
2023/05/17 11:10:09;;;;;;;8.63;4.50;;;;;;;13.62;46.99;94364.38;5091054;28;20048;-59
2023/05/17 11:12:54;;;;;;;13.38;6.82;;;;;;;14.75;45.67;94354.06;5069160;28;20043;-59
2023/05/17 11:15:25;;;;;;;5.77;2.83;;;;;;;15.37;43.43;94351.28;5076771;28;20036;-61
2023/05/17 11:17:52;;;;;;;6.70;2.78;;;;;;;16.00;42.27;94346.41;5085995;28;20066;-59
2023/05/17 11:20:22;;;;;;;7.18;3.10;;;;;;;14.64;44.95;94345.25;5090399;28;20384;-61
2023/05/17 11:23:01;;;;;;;6.65;2.75;;;;;;;13.80;44.78;94356.53;5071582;28;20040;-59
2023/05/17 11:25:34;;;;;;;5.75;2.63;;;;;;;12.55;46.94;94349.31;5072571;28;20652;-59
2023/05/17 11:28:16;;;;;;;5.00;2.60;;;;;;;13.27;45.76;94350.06;5091513;28;20074;-59
2023/05/17 11:30:49;;;;;;;4.70;2.40;;;;;;;15.42;41.83;94338.94;5091518;28;20051;-59
2023/05/17 11:33:17;;;;;;;4.95;2.38;;;;;;;15.73;41.34;94330.97;5090720;28;20432;-60
2023/05/17 11:36:04;;;;;;;5.18;2.80;;;;;;;14.92;43.59;94339.03;5093097;28;20044;-59
2023/05/17 11:38:31;;;;;;;5.18;2.70;;;;;;;15.98;43.05;94333.81;5081953;28;20495;-59
2023/05/17 11:41:15;;;;;;;5.17;2.80;;;;;;;15.67;42.17;94336.25;5070903;28;20044;-61